Spread Eagle — 9V2314 — position and weather

sailwx.info

Track history (hours):
 
Tides and Currents Weather Stations Pressure Air Temp Water Temp Dewpoint Dewpoint Depression Visibility Wind Speed Wind Dir Waves Ship Positions

Spread Eagle

Last reported at 2017-Sep-24 10:00 UTC. Time now 2017-Sep-24 10:10 UTC.
Position N 51°15' E 002°11'.

Length 224 m; draft 11.7 m.

Type: Tanker. MMSI: 565113000.

Date/timePositionNaut miles runAvg speedWind from/ knotsBaromVisibWave heightAir tempDewpointWater temp
2017-Sep-24 10:00N 51°15' E 002°11'510.9
2017-Sep-24 09:30N 51°13' E 002°03'510.8
2017-Sep-24 09:00N 51°10' E 001°56'510.7
2017-Sep-24 08:30N 51°08' E 001°48'510.6
2017-Sep-24 08:00N 51°05' E 001°41'511.0
2017-Sep-24 07:30N 51°01' E 001°35'611.8
2017-Sep-24 07:00N 50°56' E 001°29'612.1
2017-Sep-24 06:30N 50°51' E 001°25'612.7
2017-Sep-24 06:00N 50°45' E 001°23'612.0
2017-Sep-24 05:30N 50°40' E 001°17'712.7
2017-Sep-24 04:59N 50°35' E 001°09'712.6
2017-Sep-24 04:26N 50°31' E 001°01'512.2
2017-Sep-24 03:59N 50°29' E 000°53'912.4
2017-Sep-24 03:16N 50°27' E 000°39'612.5
2017-Sep-24 02:49N 50°25' E 000°31'412.5
2017-Sep-24 02:30N 50°24' E 000°25'612.6
2017-Sep-24 02:00N 50°23' E 000°15'613.0
2017-Sep-24 01:30N 50°21' E 000°05'713.5
2017-Sep-24 01:00N 50°19' W 000°05'714.0
2017-Sep-24 00:31N 50°17' W 000°15'714.6
2017-Sep-24 00:01N 50°15' W 000°26'815.2
2017-Sep-23 23:30N 50°13' W 000°38'815.8
2017-Sep-23 23:00N 50°11' W 000°49'816.0
2017-Sep-23 22:31N 50°09' W 001°01'816.1
2017-Sep-23 22:01N 50°07' W 001°14'816.5
2017-Sep-23 21:30N 50°06' W 001°26'816.4
2017-Sep-23 21:00N 50°04' W 001°39'816.2
2017-Sep-23 20:30N 50°02' W 001°51'915.4
2017-Sep-23 19:54N 49°59' W 002°05'  
2017-Sep-21 04:00N 47°06' W 026°18'   270 / 131029.110.8 15.011.311.0
2017-Sep-18 10:00N 40°00' W 048°48'7014.0 020 / 171024.610.8 20.018.421.0
2017-Sep-18 05:00N 39°48' W 050°18'32318.0 050 / 221023.010.8 22.020.524.0
2017-Sep-17 11:00N 39°00' W 057°12'7014.0 020 / 121024.5 5.4 24.021.024.5
2017-Sep-17 06:00N 38°54' W 058°42'38916.2 050 / 171023.010.8 25.023.526.0
2017-Sep-16 06:00N 38°00' W 066°54'31317.1 050 / 171023.010.8 25.023.526.0
2017-Sep-15 11:42N 37°60' W 073°31'1316.1
2017-Sep-15 10:52N 38°05' W 073°47'815.8
2017-Sep-15 10:22N 38°08' W 073°56'615.9
2017-Sep-15 10:00N 38°11' W 074°02'816.1
2017-Sep-15 09:30N 38°15' W 074°11'816.0
2017-Sep-15 09:00N 38°18' W 074°20'1015.9
2017-Sep-15 08:21N 38°20' W 074°33'514.7
2017-Sep-15 08:00N 38°23' W 074°39'815.5
2017-Sep-15 07:30N 38°29' W 074°45'714.6
2017-Sep-15 07:00N 38°35' W 074°51'713.7
2017-Sep-15 06:30N 38°40' W 074°56'713.3
2017-Sep-15 06:01N 38°45' W 075°01'611.2
2017-Sep-15 05:30N 38°50' W 075°05'3 6.9
2017-Sep-15 05:00N 38°54' W 075°06'4 7.8
2017-Sep-15 04:30N 38°57' W 075°07'4 8.6
2017-Sep-15 04:00N 39°01' W 075°09'5 9.2
2017-Sep-15 03:30N 39°06' W 075°12'511.0
2017-Sep-15 03:00N 39°10' W 075°16'713.6
2017-Sep-15 02:30N 39°16' W 075°20'714.4
2017-Sep-15 02:01N 39°21' W 075°26'714.1
2017-Sep-15 01:31N 39°26' W 075°33'612.2
2017-Sep-15 01:01N 39°33' W 075°33'5 9.9
2017-Sep-15 00:31N 39°37' W 075°35'5 9.6
2017-Sep-15 00:00N 39°41' W 075°31'5 9.3
2017-Sep-14 23:30N 39°45' W 075°29'4 8.0
2017-Sep-14 23:01N 39°48' W 075°25'0 0.4
2017-Sep-14 22:29N 39°48' W 075°25'0 0.0
2017-Sep-14 21:59N 39°48' W 075°25'0 0.0
2017-Sep-14 21:26N 39°48' W 075°25'0 0.0
2017-Sep-14 20:59N 39°48' W 075°25'0 0.0
2017-Sep-14 20:29N 39°48' W 075°25'0 0.0
2017-Sep-14 19:59N 39°48' W 075°25'0 0.0
2017-Sep-14 19:29N 39°48' W 075°25'0 0.0
2017-Sep-14 18:59N 39°48' W 075°25'0 0.0
2017-Sep-14 18:26N 39°48' W 075°25'0 0.0
2017-Sep-14 17:56N 39°48' W 075°25'0 0.0
2017-Sep-14 17:23N 39°48' W 075°25'0 0.0
2017-Sep-14 16:59N 39°48' W 075°25'0 0.0
2017-Sep-14 16:29N 39°48' W 075°25'0 0.0
2017-Sep-14 15:56N 39°48' W 075°25'0 0.0
2017-Sep-14 15:29N 39°48' W 075°25'0 0.0
2017-Sep-14 14:59N 39°48' W 075°25'0 0.0
2017-Sep-14 14:23N 39°48' W 075°25'0 0.0
2017-Sep-14 13:59N 39°48' W 075°25'0 0.0
2017-Sep-14 13:29N 39°48' W 075°25'0 0.0
2017-Sep-14 12:59N 39°48' W 075°25'0 0.0
2017-Sep-14 12:29N 39°48' W 075°25'0 0.0
2017-Sep-14 11:47N 39°48' W 075°25'0 0.0
2017-Sep-14 11:29N 39°48' W 075°25'0 0.0
2017-Sep-14 10:59N 39°48' W 075°25'0 0.0
2017-Sep-14 10:29N 39°48' W 075°25'  
Track history (hours):
 
Tides and Currents Weather Stations Pressure Air Temp Water Temp Dewpoint Dewpoint Depression Visibility Wind Speed Wind Dir Waves Ship Positions

Spread Eagle

Last reported at 2017-Sep-24 10:00 UTC. Time now 2017-Sep-24 10:10 UTC.
Position N 51°15' E 002°11'.

Length 224 m; draft 11.7 m.

Type: Tanker. MMSI: 565113000.

Date/timePositionNaut miles runAvg speedWind from/ knotsBaromVisibWave heightAir tempDewpointWater temp
2017-Sep-24 10:00N 51°15' E 002°11'510.9
2017-Sep-24 09:30N 51°13' E 002°03'510.8
2017-Sep-24 09:00N 51°10' E 001°56'510.7
2017-Sep-24 08:30N 51°08' E 001°48'510.6
2017-Sep-24 08:00N 51°05' E 001°41'511.0
2017-Sep-24 07:30N 51°01' E 001°35'611.8
2017-Sep-24 07:00N 50°56' E 001°29'612.1
2017-Sep-24 06:30N 50°51' E 001°25'612.7
2017-Sep-24 06:00N 50°45' E 001°23'612.0
2017-Sep-24 05:30N 50°40' E 001°17'712.7
2017-Sep-24 04:59N 50°35' E 001°09'712.6
2017-Sep-24 04:26N 50°31' E 001°01'512.2
2017-Sep-24 03:59N 50°29' E 000°53'912.4
2017-Sep-24 03:16N 50°27' E 000°39'612.5
2017-Sep-24 02:49N 50°25' E 000°31'412.5
2017-Sep-24 02:30N 50°24' E 000°25'612.6
2017-Sep-24 02:00N 50°23' E 000°15'613.0
2017-Sep-24 01:30N 50°21' E 000°05'713.5
2017-Sep-24 01:00N 50°19' W 000°05'714.0
2017-Sep-24 00:31N 50°17' W 000°15'714.6
2017-Sep-24 00:01N 50°15' W 000°26'815.2
2017-Sep-23 23:30N 50°13' W 000°38'815.8
2017-Sep-23 23:00N 50°11' W 000°49'816.0
2017-Sep-23 22:31N 50°09' W 001°01'816.1
2017-Sep-23 22:01N 50°07' W 001°14'816.5
2017-Sep-23 21:30N 50°06' W 001°26'816.4
2017-Sep-23 21:00N 50°04' W 001°39'816.2
2017-Sep-23 20:30N 50°02' W 001°51'915.4
2017-Sep-23 19:54N 49°59' W 002°05'  
2017-Sep-21 04:00N 47°06' W 026°18'   270 / 131029.110.8 15.011.311.0
2017-Sep-18 10:00N 40°00' W 048°48'7014.0 020 / 171024.610.8 20.018.421.0
2017-Sep-18 05:00N 39°48' W 050°18'32318.0 050 / 221023.010.8 22.020.524.0
2017-Sep-17 11:00N 39°00' W 057°12'7014.0 020 / 121024.5 5.4 24.021.024.5
2017-Sep-17 06:00N 38°54' W 058°42'38916.2 050 / 171023.010.8 25.023.526.0
2017-Sep-16 06:00N 38°00' W 066°54'31317.1 050 / 171023.010.8 25.023.526.0
2017-Sep-15 11:42N 37°60' W 073°31'1316.1
2017-Sep-15 10:52N 38°05' W 073°47'815.8
2017-Sep-15 10:22N 38°08' W 073°56'615.9
2017-Sep-15 10:00N 38°11' W 074°02'816.1
2017-Sep-15 09:30N 38°15' W 074°11'816.0
2017-Sep-15 09:00N 38°18' W 074°20'1015.9
2017-Sep-15 08:21N 38°20' W 074°33'514.7
2017-Sep-15 08:00N 38°23' W 074°39'815.5
2017-Sep-15 07:30N 38°29' W 074°45'714.6
2017-Sep-15 07:00N 38°35' W 074°51'713.7
2017-Sep-15 06:30N 38°40' W 074°56'713.3
2017-Sep-15 06:01N 38°45' W 075°01'611.2
2017-Sep-15 05:30N 38°50' W 075°05'3 6.9
2017-Sep-15 05:00N 38°54' W 075°06'4 7.8
2017-Sep-15 04:30N 38°57' W 075°07'4 8.6
2017-Sep-15 04:00N 39°01' W 075°09'5 9.2
2017-Sep-15 03:30N 39°06' W 075°12'511.0
2017-Sep-15 03:00N 39°10' W 075°16'713.6
2017-Sep-15 02:30N 39°16' W 075°20'714.4
2017-Sep-15 02:01N 39°21' W 075°26'714.1
2017-Sep-15 01:31N 39°26' W 075°33'612.2
2017-Sep-15 01:01N 39°33' W 075°33'5 9.9
2017-Sep-15 00:31N 39°37' W 075°35'5 9.6
2017-Sep-15 00:00N 39°41' W 075°31'5 9.3
2017-Sep-14 23:30N 39°45' W 075°29'4 8.0
2017-Sep-14 23:01N 39°48' W 075°25'0 0.4
2017-Sep-14 22:29N 39°48' W 075°25'0 0.0
2017-Sep-14 21:59N 39°48' W 075°25'0 0.0
2017-Sep-14 21:26N 39°48' W 075°25'0 0.0
2017-Sep-14 20:59N 39°48' W 075°25'0 0.0
2017-Sep-14 20:29N 39°48' W 075°25'0 0.0
2017-Sep-14 19:59N 39°48' W 075°25'0 0.0
2017-Sep-14 19:29N 39°48' W 075°25'0 0.0
2017-Sep-14 18:59N 39°48' W 075°25'0 0.0
2017-Sep-14 18:26N 39°48' W 075°25'0 0.0
2017-Sep-14 17:56N 39°48' W 075°25'0 0.0
2017-Sep-14 17:23N 39°48' W 075°25'0 0.0
2017-Sep-14 16:59N 39°48' W 075°25'0 0.0
2017-Sep-14 16:29N 39°48' W 075°25'0 0.0
2017-Sep-14 15:56N 39°48' W 075°25'0 0.0
2017-Sep-14 15:29N 39°48' W 075°25'0 0.0
2017-Sep-14 14:59N 39°48' W 075°25'0 0.0
2017-Sep-14 14:23N 39°48' W 075°25'0 0.0
2017-Sep-14 13:59N 39°48' W 075°25'0 0.0
2017-Sep-14 13:29N 39°48' W 075°25'0 0.0
2017-Sep-14 12:59N 39°48' W 075°25'0 0.0
2017-Sep-14 12:29N 39°48' W 075°25'0 0.0
2017-Sep-14 11:47N 39°48' W 075°25'0 0.0
2017-Sep-14 11:29N 39°48' W 075°25'0 0.0
2017-Sep-14 10:59N 39°48' W 075°25'0 0.0
2017-Sep-14 10:29N 39°48' W 075°25'  

Dump ship's entire track history